Time;durP1;ratioP1;P1;durP2;ratioP2;P2;SDS_P1;SDS_P2;PMS_P1;PMS_P2;Temp;Humidity;BMP_temperature;BMP_pressure;BME280_temperature;BME280_humidity;BME280_pressure;Samples;Min_cycle;Max_cycle;Signal;HPM_P1;HPM_P2
2021/03/11 00:00:51;;;;;;;15.10;9.30;;;;;7.20;99844.00;;;;10524832;28;20216;-75
2021/03/11 00:05:53;;;;;;;13.40;10.13;;;;;7.10;99835.00;;;;10507774;28;20189;-75
2021/03/11 00:10:55;;;;;;;13.83;10.03;;;;;7.20;99827.00;;;;10507363;28;20299;-75
2021/03/11 00:15:56;;;;;;;17.60;10.80;;;;;7.20;99835.00;;;;10506661;28;20607;-75
2021/03/11 00:20:57;;;;;;;11.40;7.90;;;;;7.30;99829.00;;;;10473719;28;20680;-75
2021/03/11 00:26:07;;;;;;;16.03;10.87;;;;;7.30;99807.00;;;;10494362;28;20196;-75
2021/03/11 00:31:08;;;;;;;15.97;10.53;;;;;7.40;99825.00;;;;10473579;28;20212;-75
2021/03/11 00:36:10;;;;;;;14.17;9.27;;;;;7.50;99790.00;;;;10507039;28;20181;-75
2021/03/11 00:41:11;;;;;;;16.77;10.67;;;;;7.50;99799.00;;;;10521020;28;20318;-75
2021/03/11 00:46:13;;;;;;;15.37;11.23;;;;;7.60;99788.00;;;;10555423;28;20250;-75
2021/03/11 00:51:15;;;;;;;14.73;10.50;;;;;7.60;99770.00;;;;10540164;28;20651;-75
2021/03/11 00:56:29;;;;;;;12.77;10.27;;;;;7.60;99775.00;;;;10460833;28;20190;-75
2021/03/11 01:01:31;;;;;;;15.27;10.53;;;;;7.70;99775.00;;;;10485008;28;20217;-75
2021/03/11 01:06:33;;;;;;;17.63;11.80;;;;;7.70;99754.00;;;;10522421;28;20189;-75
2021/03/11 01:11:36;;;;;;;15.73;11.30;;;;;7.80;99766.00;;;;10488112;28;20220;-75
2021/03/11 01:16:37;;;;;;;15.93;10.37;;;;;7.80;99737.00;;;;10504910;28;20258;-75
2021/03/11 01:21:38;;;;;;;15.30;11.30;;;;;7.70;99711.00;;;;10521294;28;20278;-75
2021/03/11 01:26:49;;;;;;;15.43;11.47;;;;;7.50;99720.00;;;;10538437;28;20188;-76
2021/03/11 01:31:51;;;;;;;16.77;11.87;;;;;7.40;99691.00;;;;10521689;28;20192;-76
2021/03/11 01:36:52;;;;;;;16.43;11.87;;;;;7.40;99680.00;;;;10487704;28;20276;-76
2021/03/11 01:41:54;;;;;;;19.33;13.47;;;;;7.40;99670.00;;;;10504096;28;20208;-76
2021/03/11 01:46:55;;;;;;;13.43;10.40;;;;;7.50;99669.00;;;;10503585;28;20193;-76
2021/03/11 01:51:57;;;;;;;22.67;13.90;;;;;7.60;99675.00;;;;10521094;28;20181;-76
2021/03/11 01:57:11;;;;;;;20.30;14.80;;;;;7.60;99676.00;;;;10506222;28;20193;-76
2021/03/11 02:02:12;;;;;;;21.13;14.60;;;;;7.60;99666.00;;;;10538976;28;20303;-76
2021/03/11 02:07:14;;;;;;;19.27;12.87;;;;;7.60;99629.00;;;;10520249;28;20203;-76
2021/03/11 02:12:57;;;;;;;19.53;13.23;;;;;7.50;99597.00;;;;10487164;28;20217;-76
2021/03/11 02:18:08;;;;;;;24.97;16.60;;;;;7.50;99604.00;;;;10480295;28;20197;-76
2021/03/11 02:23:23;;;;;;;25.57;16.60;;;;;7.50;99580.00;;;;10501962;28;20204;-76
2021/03/11 02:28:54;;;;;;;21.60;14.43;;;;;7.60;99566.00;;;;10512058;28;20189;-76
2021/03/11 02:33:58;;;;;;;28.63;17.33;;;;;7.70;99557.00;;;;10472362;28;20207;-76
2021/03/11 02:39:01;;;;;;;20.50;14.03;;;;;7.70;99542.00;;;;10505985;28;20185;-76
2021/03/11 02:44:05;;;;;;;23.60;16.63;;;;;7.80;99542.00;;;;10527402;28;20635;-76
2021/03/11 02:49:07;;;;;;;16.23;12.47;;;;;7.80;99516.00;;;;10510594;28;20189;-76
2021/03/11 02:54:10;;;;;;;24.10;16.77;;;;;7.90;99499.00;;;;10526045;28;20238;-76
2021/03/11 02:59:28;;;;;;;25.23;16.20;;;;;7.90;99488.00;;;;10510208;28;20218;-76
2021/03/11 03:04:30;;;;;;;20.90;15.20;;;;;8.00;99458.00;;;;10510310;28;20224;-76
2021/03/11 03:09:33;;;;;;;24.17;15.43;;;;;8.10;99426.00;;;;10509643;28;20195;-76
2021/03/11 03:14:36;;;;;;;22.80;14.27;;;;;8.10;99459.00;;;;10510082;28;20237;-76
2021/03/11 03:19:38;;;;;;;20.53;15.07;;;;;8.30;99432.00;;;;10510317;28;20288;-76
2021/03/11 03:24:41;;;;;;;15.57;11.83;;;;;8.30;99424.00;;;;10533810;28;20244;-76
2021/03/11 03:29:42;;;;;;;19.23;14.07;;;;;8.40;99442.00;;;;10544445;28;20181;-76
2021/03/11 03:34:44;;;;;;;18.47;13.80;;;;;8.50;99428.00;;;;10492753;28;20185;-77
2021/03/11 03:39:45;;;;;;;19.17;13.33;;;;;8.60;99425.00;;;;10508503;28;20208;-76
2021/03/11 03:44:50;;;;;;;22.40;13.27;;;;;8.60;99418.00;;;;10526348;28;20199;-77
2021/03/11 03:49:52;;;;;;;19.13;12.77;;;;;8.50;99406.00;;;;10491913;28;20201;-77
2021/03/11 03:54:56;;;;;;;21.20;15.67;;;;;8.40;99370.00;;;;10525220;28;20289;-77
2021/03/11 03:59:58;;;;;;;20.60;14.77;;;;;8.30;99360.00;;;;10544473;28;20240;-77
2021/03/11 04:05:02;;;;;;;20.80;13.33;;;;;8.30;99347.00;;;;10508002;28;20204;-77
2021/03/11 04:10:08;;;;;;;17.00;11.00;;;;;8.40;99339.00;;;;10534038;28;20195;-77
2021/03/11 04:15:11;;;;;;;17.90;13.23;;;;;8.40;99336.00;;;;10528191;28;20626;-77
2021/03/11 04:20:12;;;;;;;14.60;11.50;;;;;8.50;99325.00;;;;10523794;28;20232;-77
2021/03/11 04:25:15;;;;;;;17.53;11.73;;;;;8.50;99312.00;;;;10507624;28;20449;-77
2021/03/11 04:30:18;;;;;;;15.77;9.73;;;;;8.60;99330.00;;;;10474870;28;20202;-77
2021/03/11 04:35:19;;;;;;;14.53;10.20;;;;;8.70;99305.00;;;;10465243;28;20197;-77
2021/03/11 04:40:22;;;;;;;11.17;8.73;;;;;8.90;99307.00;;;;10535690;28;20247;-77
2021/03/11 04:45:24;;;;;;;15.00;11.73;;;;;9.00;99320.00;;;;10506314;28;20283;-77
2021/03/11 04:50:26;;;;;;;14.83;11.30;;;;;9.10;99291.00;;;;10523182;28;20272;-77
2021/03/11 04:55:27;;;;;;;13.40;9.07;;;;;9.20;99292.00;;;;10522147;28;20193;-77
2021/03/11 05:00:30;;;;;;;12.27;8.33;;;;;9.40;99304.00;;;;10521461;28;20660;-77
2021/03/11 05:05:37;;;;;;;11.43;8.80;;;;;9.50;99295.00;;;;10505244;28;20196;-76
2021/03/11 05:10:40;;;;;;;10.30;7.27;;;;;9.60;99291.00;;;;10504892;28;20192;-77
2021/03/11 05:15:41;;;;;;;12.57;10.20;;;;;9.70;99272.00;;;;10555310;28;20597;-77
2021/03/11 05:20:43;;;;;;;12.23;9.27;;;;;9.80;99284.00;;;;10488695;28;20201;-77
2021/03/11 05:25:45;;;;;;;13.40;8.70;;;;;9.90;99262.00;;;;10521785;28;20219;-77
2021/03/11 05:30:47;;;;;;;10.50;7.27;;;;;10.00;99246.00;;;;10539083;28;20261;-77
2021/03/11 05:35:48;;;;;;;10.37;7.63;;;;;10.00;99229.00;;;;10504100;28;20302;-77
2021/03/11 05:40:53;;;;;;;14.03;8.57;;;;;9.90;99227.00;;;;10539599;28;20327;-77
2021/03/11 05:45:56;;;;;;;9.10;7.50;;;;;9.60;99213.00;;;;10503759;28;20196;-77
2021/03/11 05:50:58;;;;;;;10.20;7.17;;;;;9.60;99213.00;;;;10504136;28;20181;-77
2021/03/11 05:55:59;;;;;;;10.77;7.43;;;;;9.70;99228.00;;;;10498046;28;20201;-77
2021/03/11 06:01:04;;;;;;;12.57;7.93;;;;;9.70;99222.00;;;;10529562;28;20213;-77
2021/03/11 06:06:06;;;;;;;11.90;7.90;;;;;9.70;99218.00;;;;10516613;28;20189;-77
2021/03/11 06:11:08;;;;;;;10.37;7.47;;;;;9.60;99193.00;;;;10522319;28;20262;-77
2021/03/11 06:16:23;;;;;;;7.90;5.37;;;;;9.60;99215.00;;;;10522588;28;20189;-77
2021/03/11 06:21:25;;;;;;;9.73;6.30;;;;;9.70;99228.00;;;;10528567;28;20208;-77
2021/03/11 06:26:26;;;;;;;10.57;6.33;;;;;9.80;99198.00;;;;10545898;28;20235;-77
2021/03/11 06:31:30;;;;;;;7.03;5.00;;;;;10.00;99196.00;;;;10528917;28;20216;-77
2021/03/11 06:36:32;;;;;;;7.80;4.00;;;;;10.20;99188.00;;;;10538726;28;20188;-76
2021/03/11 06:41:44;;;;;;;4.30;3.27;;;;;10.40;99194.00;;;;10494189;28;20208;-76
2021/03/11 06:47:02;;;;;;;5.33;2.50;;;;;10.70;99219.00;;;;10527172;28;20193;-76
2021/03/11 06:52:07;;;;;;;6.57;3.80;;;;;10.70;99218.00;;;;10510399;28;20192;-77
2021/03/11 06:57:08;;;;;;;9.83;3.53;;;;;10.40;99232.00;;;;10540307;28;20197;-76
2021/03/11 07:02:12;;;;;;;7.40;3.43;;;;;10.40;99221.00;;;;10469429;28;20252;-76
2021/03/11 07:07:22;;;;;;;6.67;3.50;;;;;10.30;99217.00;;;;10512121;28;20704;-76
2021/03/11 07:12:23;;;;;;;6.63;4.03;;;;;10.30;99224.00;;;;10544294;28;20296;-77
2021/03/11 07:17:25;;;;;;;13.47;3.73;;;;;10.30;99186.00;;;;10529097;28;20184;-76
2021/03/11 07:22:26;;;;;;;11.03;3.20;;;;;10.40;99205.00;;;;10516580;28;20201;-76
2021/03/11 07:27:40;;;;;;;5.37;3.27;;;;;10.50;99205.00;;;;10507771;28;20670;-77
2021/03/11 07:32:41;;;;;;;9.17;3.67;;;;;10.60;99222.00;;;;10525658;28;20189;-77
2021/03/11 07:37:48;;;;;;;6.07;2.50;;;;;10.70;99206.00;;;;10525316;28;20193;-77
2021/03/11 07:42:49;;;;;;;6.27;2.20;;;;;10.80;99214.00;;;;10481871;28;20272;-77
2021/03/11 07:48:02;;;;;;;7.13;2.43;;;;;10.90;99230.00;;;;10525808;28;20193;-77
2021/03/11 07:53:05;;;;;;;8.10;2.53;;;;;11.10;99223.00;;;;10510337;28;20181;-76
2021/03/11 07:58:12;;;;;;;11.67;2.90;;;;;11.90;99227.00;;;;10540094;28;20201;-76
2021/03/11 08:03:21;;;;;;;11.27;3.13;;;;;12.10;99217.00;;;;10509395;28;20261;-76
2021/03/11 08:08:30;;;;;;;30.63;4.93;;;;;12.60;99233.00;;;;10540308;28;20272;-76
2021/03/11 08:13:36;;;;;;;23.47;5.07;;;;;13.00;99220.00;;;;10562013;28;20208;-76
2021/03/11 08:18:37;;;;;;;22.20;5.30;;;;;13.00;99227.00;;;;10504692;28;20196;-76
2021/03/11 08:23:40;;;;;;;28.20;6.20;;;;;13.00;99231.00;;;;10505938;28;20806;-76
2021/03/11 08:28:41;;;;;;;23.67;5.53;;;;;12.80;99218.00;;;;10520501;28;20295;-76
2021/03/11 08:33:43;;;;;;;27.03;5.90;;;;;13.10;99226.00;;;;10490242;28;20250;-76
2021/03/11 08:38:45;;;;;;;25.97;5.60;;;;;13.00;99214.00;;;;10525925;28;20281;-76
2021/03/11 08:43:46;;;;;;;20.33;5.53;;;;;12.80;99205.00;;;;10540022;28;20644;-76
2021/03/11 08:48:57;;;;;;;20.63;5.27;;;;;13.00;99204.00;;;;10541100;28;20192;-76
2021/03/11 08:54:02;;;;;;;17.27;5.93;;;;;13.20;99198.00;;;;10532580;28;20540;-75
2021/03/11 08:59:05;;;;;;;12.73;3.47;;;;;14.00;99169.00;;;;10511820;28;20654;-75
2021/03/11 09:04:23;;;;;;;12.27;4.03;;;;;14.90;99189.00;;;;10543409;28;20217;-75
2021/03/11 09:09:46;;;;;;;16.17;4.50;;;;;15.00;99189.00;;;;10464139;28;20201;-75
2021/03/11 09:14:50;;;;;;;22.20;5.10;;;;;14.50;99191.00;;;;10509824;28;20742;-75
2021/03/11 09:20:01;;;;;;;16.37;5.27;;;;;14.60;99149.00;;;;10521444;28;20197;-75
2021/03/11 09:25:03;;;;;;;19.30;4.37;;;;;14.90;99152.00;;;;10522739;28;20193;-75
2021/03/11 09:30:09;;;;;;;22.53;4.27;;;;;15.00;99157.00;;;;10539762;28;20180;-77
2021/03/11 09:35:13;;;;;;;18.40;4.23;;;;;15.00;99167.00;;;;10505569;28;20204;-75
2021/03/11 09:40:23;;;;;;;24.10;4.60;;;;;15.30;99173.00;;;;10526418;28;20200;-75
2021/03/11 09:45:36;;;;;;;17.87;5.07;;;;;15.50;99170.00;;;;10532580;28;20901;-75
2021/03/11 09:50:50;;;;;;;20.67;4.60;;;;;15.90;99174.00;;;;10489748;28;20243;-75
2021/03/11 09:55:55;;;;;;;21.17;4.67;;;;;16.00;99203.00;;;;10473222;28;20223;-75
2021/03/11 10:00:58;;;;;;;11.33;4.00;;;;;15.50;99178.00;;;;10515247;28;20701;-76
2021/03/11 10:06:02;;;;;;;16.87;4.27;;;;;15.70;99180.00;;;;10538483;28;20180;-76
2021/03/11 10:11:09;;;;;;;20.07;4.50;;;;;15.60;99172.00;;;;10537765;28;20223;-76
2021/03/11 10:16:11;;;;;;;18.60;4.57;;;;;16.10;99163.00;;;;10531178;28;20215;-76
2021/03/11 10:21:12;;;;;;;18.70;4.57;;;;;16.70;99172.00;;;;10520274;28;20200;-76
2021/03/11 10:26:18;;;;;;;22.53;4.87;;;;;15.50;99216.00;;;;10519660;28;20193;-75
2021/03/11 10:31:23;;;;;;;21.43;5.40;;;;;14.90;99211.00;;;;10520252;28;20181;-75
2021/03/11 10:36:25;;;;;;;11.83;3.83;;;;;14.80;99211.00;;;;10529210;28;20188;-75
2021/03/11 10:41:26;;;;;;;14.67;3.27;;;;;15.60;99227.00;;;;10504001;28;20216;-76
2021/03/11 10:46:28;;;;;;;15.20;4.03;;;;;15.90;99214.00;;;;10519397;28;20243;-76
2021/03/11 10:51:32;;;;;;;16.47;3.40;;;;;15.90;99216.00;;;;10510026;28;20648;-76
2021/03/11 10:56:33;;;;;;;17.50;4.03;;;;;16.40;99239.00;;;;10501058;28;20223;-76
2021/03/11 11:01:40;;;;;;;13.55;3.45;;;;;16.20;99236.00;;;;10538671;28;20219;-76
2021/03/11 11:06:42;;;;;;;15.13;3.43;;;;;15.90;99231.00;;;;10502929;28;20304;-75
2021/03/11 11:11:43;;;;;;;13.10;3.27;;;;;16.80;99233.00;;;;10508050;28;20216;-76
2021/03/11 11:16:44;;;;;;;14.90;3.60;;;;;17.20;99221.00;;;;10519887;28;20208;-76
2021/03/11 11:21:46;;;;;;;15.25;3.33;;;;;17.00;99227.00;;;;10525653;28;20209;-76
2021/03/11 11:26:48;;;;;;;12.15;3.10;;;;;16.10;99255.00;;;;10525525;28;20169;-76
2021/03/11 11:31:49;;;;;;;18.15;2.95;;;;;16.70;99243.00;;;;10528362;28;20279;-76
2021/03/11 11:36:51;;;;;;;12.18;2.97;;;;;16.90;99241.00;;;;10526009;28;20195;-76
2021/03/11 11:41:52;;;;;;;13.75;3.47;;;;;17.50;99250.00;;;;10495005;28;20209;-76
2021/03/11 11:46:53;;;;;;;17.23;3.63;;;;;17.30;99255.00;;;;10543037;28;20209;-76
2021/03/11 11:51:55;;;;;;;15.70;3.20;;;;;16.50;99270.00;;;;10524565;28;20971;-76
2021/03/11 11:56:56;;;;;;;17.17;3.85;;;;;17.50;99269.00;;;;10524630;28;20239;-76
2021/03/11 12:01:58;;;;;;;17.70;3.33;;;;;18.40;99286.00;;;;10522020;28;20239;-77
2021/03/11 12:06:59;;;;;;;14.80;3.33;;;;;17.90;99263.00;;;;10510294;28;20272;-76
2021/03/11 12:12:03;;;;;;;25.95;4.10;;;;;17.20;99277.00;;;;10566342;28;20617;-75
2021/03/11 12:17:04;;;;;;;11.45;2.45;;;;;17.00;99327.00;;;;10531649;28;20193;-75
2021/03/11 12:22:06;;;;;;;10.45;2.67;;;;;17.00;99312.00;;;;10491576;28;20304;-74
2021/03/11 12:27:07;;;;;;;16.00;2.70;;;;;17.00;99319.00;;;;10530850;28;20243;-75
2021/03/11 12:32:09;;;;;;;9.63;3.03;;;;;16.90;99313.00;;;;10525869;28;20239;-75
2021/03/11 12:37:11;;;;;;;16.67;3.20;;;;;16.40;99312.00;;;;10510331;28;20253;-75
2021/03/11 12:42:13;;;;;;;18.27;3.33;;;;;16.30;99310.00;;;;10479235;28;20210;-76
2021/03/11 12:47:15;;;;;;;14.07;3.63;;;;;16.70;99324.00;;;;10474784;28;20192;-75
2021/03/11 12:52:17;;;;;;;13.07;3.37;;;;;16.70;99326.00;;;;10490050;28;20216;-75
2021/03/11 12:57:19;;;;;;;17.70;3.70;;;;;15.80;99296.00;;;;10537190;28;20212;-75
2021/03/11 13:02:23;;;;;;;13.73;2.83;;;;;15.60;99324.00;;;;10536443;28;20212;-76
2021/03/11 13:07:25;;;;;;;11.80;3.13;;;;;15.80;99345.00;;;;10546864;28;20205;-77
2021/03/11 13:12:27;;;;;;;10.93;2.97;;;;;15.80;99327.00;;;;10507072;28;20205;-76
2021/03/11 13:17:29;;;;;;;12.03;2.27;;;;;15.40;99329.00;;;;10523796;28;20204;-76
2021/03/11 13:22:30;;;;;;;13.50;2.50;;;;;16.50;99331.00;;;;10505134;28;20567;-76
2021/03/11 13:27:33;;;;;;;10.33;2.77;;;;;16.40;99339.00;;;;10504985;28;20716;-76
2021/03/11 13:32:35;;;;;;;12.03;2.80;;;;;15.80;99340.00;;;;10504891;28;20193;-76
2021/03/11 13:37:38;;;;;;;10.27;1.70;;;;;16.00;99326.00;;;;10464168;28;20586;-76
2021/03/11 13:42:39;;;;;;;11.07;1.70;;;;;16.90;99339.00;;;;10538327;28;20624;-76
2021/03/11 13:47:41;;;;;;;9.20;1.83;;;;;17.40;99328.00;;;;10545876;28;20204;-76
2021/03/11 13:52:43;;;;;;;9.30;1.42;;;;;18.20;99334.00;;;;10499488;28;20195;-76
2021/03/11 13:57:44;;;;;;;7.28;1.73;;;;;18.40;99334.00;;;;10521154;28;20185;-76
2021/03/11 14:02:46;;;;;;;4.18;1.17;;;;;17.80;99351.00;;;;10521458;28;20254;-76
2021/03/11 14:07:51;;;;;;;4.60;1.35;;;;;16.70;99355.00;;;;10511583;28;20193;-76
2021/03/11 14:12:52;;;;;;;8.97;1.50;;;;;16.00;99362.00;;;;10485124;28;20213;-77
2021/03/11 14:17:54;;;;;;;11.07;1.40;;;;;16.20;99361.00;;;;10520618;28;20548;-76
2021/03/11 14:22:56;;;;;;;4.47;1.20;;;;;16.00;99353.00;;;;10502123;28;20247;-76
2021/03/11 14:27:57;;;;;;;7.10;1.10;;;;;15.80;99364.00;;;;10537405;28;20196;-76
2021/03/11 14:32:59;;;;;;;4.17;1.07;;;;;15.90;99345.00;;;;10520661;28;20185;-76
2021/03/11 14:38:03;;;;;;;4.33;1.43;;;;;17.80;99349.00;;;;10559474;28;20204;-76
2021/03/11 14:43:04;;;;;;;8.37;2.30;;;;;19.40;99361.00;;;;10522347;28;20713;-76
2021/03/11 14:48:07;;;;;;;6.53;1.80;;;;;15.90;99359.00;;;;10536944;28;20224;-77
2021/03/11 14:53:08;;;;;;;7.53;1.77;;;;;14.70;99379.00;;;;10494054;28;20521;-77
2021/03/11 14:58:10;;;;;;;14.10;4.30;;;;;15.90;99380.00;;;;10510393;28;20223;-77
2021/03/11 15:03:12;;;;;;;6.60;1.83;;;;;16.40;99382.00;;;;10528030;28;20412;-76
2021/03/11 15:08:14;;;;;;;8.40;2.10;;;;;17.00;99337.00;;;;10549124;28;20201;-77
2021/03/11 15:13:16;;;;;;;12.27;3.00;;;;;17.20;99405.00;;;;10505438;28;20205;-76
2021/03/11 15:18:20;;;;;;;10.50;2.20;;;;;16.20;99389.00;;;;10527140;28;20208;-76
2021/03/11 15:23:22;;;;;;;12.27;2.93;;;;;16.00;99404.00;;;;10526960;28;20288;-76
2021/03/11 15:28:23;;;;;;;11.17;2.73;;;;;14.40;99387.00;;;;10525944;28;20188;-77
2021/03/11 15:33:25;;;;;;;10.27;2.33;;;;;13.70;99403.00;;;;10508786;28;20189;-77
2021/03/11 15:38:27;;;;;;;13.20;5.73;;;;;13.40;99408.00;;;;10497069;28;20203;-77
2021/03/11 15:43:31;;;;;;;12.13;2.00;;;;;13.50;99405.00;;;;10508820;28;20284;-76
2021/03/11 15:48:33;;;;;;;13.03;2.70;;;;;13.40;99411.00;;;;10524738;28;20189;-77
2021/03/11 15:53:35;;;;;;;12.03;2.30;;;;;13.10;99424.00;;;;10543143;28;20208;-76
2021/03/11 15:58:37;;;;;;;13.10;2.73;;;;;12.90;99413.00;;;;10506682;28;20195;-77
2021/03/11 16:03:38;;;;;;;7.17;1.83;;;;;12.90;99414.00;;;;10530306;28;20244;-77
2021/03/11 16:08:40;;;;;;;13.67;2.80;;;;;12.70;99418.00;;;;10495062;28;20205;-77
2021/03/11 16:13:41;;;;;;;11.97;2.40;;;;;12.50;99383.00;;;;10539809;28;20548;-76
2021/03/11 16:18:43;;;;;;;12.23;2.60;;;;;12.50;99403.00;;;;10578430;28;20193;-77
2021/03/11 16:23:45;;;;;;;11.50;2.70;;;;;12.50;99388.00;;;;10510318;28;20228;-77
2021/03/11 16:28:46;;;;;;;12.10;2.80;;;;;12.40;99399.00;;;;10488728;28;20192;-77
2021/03/11 16:33:48;;;;;;;14.53;4.03;;;;;12.20;99421.00;;;;10523969;28;20815;-76
2021/03/11 16:38:50;;;;;;;14.43;2.70;;;;;12.00;99408.00;;;;10505019;28;20247;-76
2021/03/11 16:43:54;;;;;;;11.23;2.57;;;;;11.90;99409.00;;;;10533501;28;20205;-76
2021/03/11 16:48:55;;;;;;;12.73;2.90;;;;;11.70;99415.00;;;;10521205;28;20895;-76
2021/03/11 16:53:56;;;;;;;11.10;2.17;;;;;11.50;99432.00;;;;10538775;28;20214;-76
2021/03/11 16:58:57;;;;;;;9.93;2.30;;;;;11.40;99441.00;;;;10548013;28;20208;-76
2021/03/11 17:03:59;;;;;;;9.40;2.53;;;;;11.40;99438.00;;;;10560577;28;20204;-76
2021/03/11 17:09:04;;;;;;;9.33;2.17;;;;;11.80;99464.00;;;;10564674;28;20205;-77
2021/03/11 17:14:05;;;;;;;10.83;2.27;;;;;11.70;99454.00;;;;10496589;28;20217;-77
2021/03/11 17:19:07;;;;;;;12.70;2.70;;;;;11.40;99468.00;;;;10518643;28;20192;-76
2021/03/11 17:24:08;;;;;;;11.33;2.00;;;;;11.00;99466.00;;;;10526588;28;20205;-76
2021/03/11 17:29:10;;;;;;;9.40;1.83;;;;;10.80;99475.00;;;;10493050;28;20733;-77
2021/03/11 17:34:12;;;;;;;9.10;2.17;;;;;10.70;99495.00;;;;10536410;28;20193;-77
2021/03/11 17:39:14;;;;;;;6.10;1.40;;;;;10.60;99502.00;;;;10519416;28;20193;-76
2021/03/11 17:44:18;;;;;;;12.37;2.70;;;;;10.60;99504.00;;;;10489218;28;20201;-76
2021/03/11 17:49:20;;;;;;;9.90;2.47;;;;;10.50;99509.00;;;;10493134;28;20568;-76
2021/03/11 17:54:21;;;;;;;10.03;2.53;;;;;10.40;99524.00;;;;10525803;28;20193;-76
2021/03/11 17:59:23;;;;;;;10.73;2.10;;;;;10.40;99538.00;;;;10499580;28;20227;-76
2021/03/11 18:04:24;;;;;;;11.87;2.37;;;;;10.30;99537.00;;;;10502833;28;20223;-76
2021/03/11 18:09:34;;;;;;;15.83;2.50;;;;;10.10;99571.00;;;;10511464;28;20195;-76
2021/03/11 18:14:36;;;;;;;5.50;1.73;;;;;10.00;99556.00;;;;10529680;28;20204;-76
2021/03/11 18:19:38;;;;;;;7.47;2.03;;;;;10.00;99564.00;;;;10507683;28;20197;-76
2021/03/11 18:24:39;;;;;;;10.10;2.20;;;;;10.00;99587.00;;;;10492042;28;20229;-76
2021/03/11 18:29:41;;;;;;;7.37;1.97;;;;;10.00;99588.00;;;;10516147;28;20932;-76
2021/03/11 18:34:43;;;;;;;24.70;3.00;;;;;9.80;99584.00;;;;10524721;28;20194;-76
2021/03/11 18:39:58;;;;;;;14.03;2.90;;;;;9.50;99597.00;;;;10504336;28;20542;-76
2021/03/11 18:45:00;;;;;;;9.87;2.00;;;;;9.30;99601.00;;;;10489587;28;20298;-76
2021/03/11 18:50:04;;;;;;;12.30;2.30;;;;;9.30;99603.00;;;;10487528;28;20201;-76
2021/03/11 18:55:07;;;;;;;10.10;1.97;;;;;9.20;99617.00;;;;10488824;28;20273;-76
2021/03/11 19:00:13;;;;;;;11.03;2.33;;;;;9.20;99607.00;;;;10513039;28;20293;-76
2021/03/11 19:05:14;;;;;;;15.97;2.07;;;;;9.30;99610.00;;;;10505081;28;20201;-76
2021/03/11 19:10:22;;;;;;;10.03;2.10;;;;;9.30;99621.00;;;;10494084;28;20188;-76
2021/03/11 19:15:26;;;;;;;7.47;1.83;;;;;9.20;99624.00;;;;10474847;28;20286;-76
2021/03/11 19:20:31;;;;;;;10.60;2.33;;;;;9.20;99620.00;;;;10484927;28;20205;-76
2021/03/11 19:25:34;;;;;;;11.30;2.07;;;;;9.10;99622.00;;;;10482540;28;20267;-76
2021/03/11 19:30:37;;;;;;;14.17;2.77;;;;;9.10;99637.00;;;;10477937;28;20204;-76
2021/03/11 19:35:39;;;;;;;11.70;2.30;;;;;9.10;99638.00;;;;10513095;28;20200;-76
2021/03/11 19:40:46;;;;;;;17.30;2.40;;;;;9.00;99653.00;;;;10497555;28;20224;-76
2021/03/11 19:45:48;;;;;;;12.47;2.30;;;;;9.00;99654.00;;;;10530351;28;20673;-76
2021/03/11 19:50:50;;;;;;;6.17;1.47;;;;;9.00;99656.00;;;;10494608;28;20247;-76
2021/03/11 19:55:53;;;;;;;8.97;1.83;;;;;8.90;99673.00;;;;10515776;28;20193;-76
2021/03/11 20:00:54;;;;;;;5.87;1.27;;;;;8.90;99671.00;;;;10512949;28;20738;-76
2021/03/11 20:05:56;;;;;;;7.20;1.60;;;;;8.80;99674.00;;;;10504429;28;20200;-76
2021/03/11 20:11:10;;;;;;;2.77;1.00;;;;;8.70;99674.00;;;;10535054;28;20216;-77
2021/03/11 20:16:12;;;;;;;6.07;2.60;;;;;8.50;99688.00;;;;10485302;28;20201;-77
2021/03/11 20:21:14;;;;;;;4.67;1.30;;;;;8.30;99703.00;;;;10503789;28;20300;-77
2021/03/11 20:26:15;;;;;;;10.57;1.80;;;;;8.20;99719.00;;;;10483165;28;20192;-77
2021/03/11 20:31:17;;;;;;;4.83;1.60;;;;;8.10;99722.00;;;;10506798;28;20710;-77
2021/03/11 20:36:21;;;;;;;7.70;1.40;;;;;7.90;99730.00;;;;10518579;28;20255;-78
2021/03/11 20:41:38;;;;;;;7.93;1.80;;;;;7.80;99747.00;;;;10495727;28;20237;-77
2021/03/11 20:46:43;;;;;;;5.50;1.37;;;;;7.80;99745.00;;;;10507272;28;20287;-77
2021/03/11 20:51:45;;;;;;;4.60;1.20;;;;;7.80;99756.00;;;;10463982;28;20228;-77
2021/03/11 20:56:46;;;;;;;2.27;0.77;;;;;7.70;99757.00;;;;10491463;28;20190;-77
2021/03/11 21:01:48;;;;;;;6.27;1.30;;;;;7.60;99766.00;;;;10489548;28;20227;-77
2021/03/11 21:06:50;;;;;;;2.53;1.00;;;;;7.60;99791.00;;;;10490447;28;20192;-77
2021/03/11 21:12:03;;;;;;;3.67;1.20;;;;;7.70;99798.00;;;;10493089;28;20290;-77
2021/03/11 21:17:04;;;;;;;3.73;1.10;;;;;7.70;99803.00;;;;10476415;28;20238;-76
2021/03/11 21:22:06;;;;;;;4.23;0.87;;;;;7.70;99801.00;;;;10514182;28;20288;-77
2021/03/11 21:27:07;;;;;;;3.37;1.33;;;;;7.70;99818.00;;;;10528065;28;20184;-77
2021/03/11 21:32:09;;;;;;;5.20;1.60;;;;;7.60;99826.00;;;;10508702;28;20192;-77
2021/03/11 21:37:11;;;;;;;7.10;1.30;;;;;7.40;99830.00;;;;10527358;28;20235;-77
2021/03/11 21:42:24;;;;;;;5.40;1.97;;;;;7.40;99838.00;;;;10520127;28;20215;-77
2021/03/11 21:47:25;;;;;;;7.70;1.77;;;;;7.30;99851.00;;;;10504525;28;20220;-77
2021/03/11 21:52:26;;;;;;;6.63;1.23;;;;;7.30;99872.00;;;;10538751;28;20204;-77
2021/03/11 21:57:28;;;;;;;5.70;1.53;;;;;7.20;99885.00;;;;10471634;28;20246;-77
2021/03/11 22:02:29;;;;;;;8.73;2.47;;;;;7.10;99893.00;;;;10520773;28;20299;-77
2021/03/11 22:07:30;;;;;;;10.57;2.13;;;;;7.30;99906.00;;;;10521180;28;20254;-77
2021/03/11 22:12:47;;;;;;;11.20;2.00;;;;;7.40;99896.00;;;;10538037;28;20244;-77
2021/03/11 22:17:49;;;;;;;7.87;1.53;;;;;7.50;99906.00;;;;10504318;28;20243;-77
2021/03/11 22:22:51;;;;;;;9.70;2.17;;;;;7.50;99921.00;;;;10503170;28;20204;-77
2021/03/11 22:27:53;;;;;;;11.03;3.40;;;;;7.50;99923.00;;;;10537809;28;20293;-77
2021/03/11 22:32:54;;;;;;;10.93;2.30;;;;;7.40;99934.00;;;;10475763;28;20194;-77
2021/03/11 22:37:56;;;;;;;7.57;2.30;;;;;7.40;99945.00;;;;10496506;28;20193;-77
2021/03/11 22:43:13;;;;;;;11.33;1.90;;;;;7.40;99953.00;;;;10505024;28;20206;-77
2021/03/11 22:48:16;;;;;;;6.57;2.00;;;;;7.20;99953.00;;;;10503578;28;20192;-77
2021/03/11 22:53:18;;;;;;;9.17;2.37;;;;;7.20;99952.00;;;;10502717;28;20186;-77
2021/03/11 22:58:19;;;;;;;18.70;2.80;;;;;7.30;99973.00;;;;10543530;28;20207;-77
2021/03/11 23:03:20;;;;;;;8.40;2.17;;;;;7.40;99984.00;;;;10477783;28;20251;-77
2021/03/11 23:08:22;;;;;;;4.07;1.60;;;;;7.40;99981.00;;;;10510472;28;20189;-77
2021/03/11 23:13:33;;;;;;;10.57;2.30;;;;;7.40;100016.00;;;;10512005;28;20239;-77
2021/03/11 23:18:35;;;;;;;6.07;1.80;;;;;7.40;100012.00;;;;10493438;28;20235;-77
2021/03/11 23:23:39;;;;;;;8.47;1.80;;;;;7.50;100050.00;;;;10509393;28;20204;-77
2021/03/11 23:28:41;;;;;;;6.33;1.60;;;;;7.40;100046.00;;;;10509554;28;20222;-77
2021/03/11 23:33:43;;;;;;;9.83;1.57;;;;;7.40;100061.00;;;;10492939;28;20216;-77
2021/03/11 23:38:44;;;;;;;12.57;2.60;;;;;7.40;100080.00;;;;10525935;28;20621;-77
2021/03/11 23:43:56;;;;;;;6.03;1.60;;;;;7.30;100083.00;;;;10502906;28;20248;-77
2021/03/11 23:48:57;;;;;;;8.67;1.90;;;;;7.30;100088.00;;;;10509365;28;20703;-77
2021/03/11 23:53:59;;;;;;;9.57;2.30;;;;;7.30;100104.00;;;;10492487;28;20266;-77
2021/03/11 23:59:02;;;;;;;13.60;2.57;;;;;7.20;100100.00;;;;10517761;28;20247;-77
